Time;durP1;ratioP1;P1;durP2;ratioP2;P2;SDS_P1;SDS_P2;PMS_P1;PMS_P2;Temp;Humidity;BMP_temperature;BMP_pressure;BME280_temperature;BME280_humidity;BME280_pressure;Samples;Min_cycle;Max_cycle;Signal;HPM_P1;HPM_P2
2022/11/13 00:01:51;;;;;;;13.50;8.98;;;;;;;9.83;71.77;95999.81;4142880;28;20046;-73
2022/11/13 00:03:53;;;;;;;11.45;8.38;;;;;;;9.88;71.89;96002.91;4144527;28;20096;-72
2022/11/13 00:05:59;;;;;;;12.85;8.32;;;;;;;9.94;71.40;95999.78;4142877;28;20069;-72
2022/11/13 00:08:01;;;;;;;9.25;7.05;;;;;;;10.01;71.74;95998.34;4144249;28;20045;-75
2022/11/13 00:10:03;;;;;;;8.10;6.38;;;;;;;10.04;71.73;95999.88;4121670;28;20061;-73
2022/11/13 00:12:04;;;;;;;8.30;5.57;;;;;;;10.09;71.11;95997.72;4144201;28;20233;-72
2022/11/13 00:14:06;;;;;;;7.22;5.28;;;;;;;10.14;71.02;95985.09;4144784;28;20260;-74
2022/11/13 00:16:13;;;;;;;8.25;5.40;;;;;;;10.20;71.07;95996.84;4143216;28;20125;-74
2022/11/13 00:18:15;;;;;;;6.63;5.05;;;;;;;10.28;70.76;95985.75;4143691;28;20050;-70
2022/11/13 00:20:17;;;;;;;8.10;5.20;;;;;;;10.31;70.74;95985.53;4144681;28;20081;-72
2022/11/13 00:22:19;;;;;;;9.77;5.50;;;;;;;10.30;70.55;95991.72;4144356;28;20132;-73
2022/11/13 00:24:21;;;;;;;8.02;5.47;;;;;;;10.29;70.54;95992.66;4144024;28;20089;-72
2022/11/13 00:26:25;;;;;;;8.30;4.88;;;;;;;10.24;70.43;95983.38;4140270;28;20100;-73
2022/11/13 00:28:27;;;;;;;8.60;6.22;;;;;;;10.25;71.07;95981.59;4123288;28;20065;-73
2022/11/13 00:30:29;;;;;;;8.38;5.60;;;;;;;10.25;71.01;95978.97;4136163;28;20239;-73
2022/11/13 00:32:31;;;;;;;8.30;5.55;;;;;;;10.25;70.95;95978.97;4141797;28;20052;-76
2022/11/13 00:34:32;;;;;;;8.60;5.95;;;;;;;10.28;70.48;95977.88;4144089;28;20113;-74
2022/11/13 00:36:48;;;;;;;9.25;5.60;;;;;;;10.30;70.42;95983.84;4142950;28;20057;-77
2022/11/13 00:38:50;;;;;;;9.23;5.65;;;;;;;10.34;70.90;95982.66;4126014;28;20073;-73
2022/11/13 00:40:52;;;;;;;8.30;5.93;;;;;;;10.39;70.60;95986.56;4142645;28;20099;-74
2022/11/13 00:42:54;;;;;;;8.52;5.60;;;;;;;10.40;70.10;95980.34;4142576;28;20077;-76
2022/11/13 00:44:55;;;;;;;9.45;5.97;;;;;;;10.40;70.28;95971.66;4138822;28;20396;-75
2022/11/13 00:46:57;;;;;;;7.93;5.65;;;;;;;10.44;70.34;95975.69;4141011;28;20054;-75
2022/11/13 00:48:59;;;;;;;7.95;5.85;;;;;;;10.44;70.13;95979.16;4143851;28;20100;-76
2022/11/13 00:51:01;;;;;;;9.13;6.47;;;;;;;10.51;69.98;95982.09;4142544;28;20058;-75
2022/11/13 00:53:02;;;;;;;8.00;6.47;;;;;;;10.49;69.65;95970.91;4141876;28;20135;-74
2022/11/13 00:55:05;;;;;;;10.70;6.53;;;;;;;10.49;69.63;95975.31;4137096;28;20145;-74
2022/11/13 00:57:06;;;;;;;9.05;6.63;;;;;;;10.41;70.04;95979.41;4143790;28;20129;-73
2022/11/13 00:59:08;;;;;;;10.52;7.22;;;;;;;10.42;70.16;95970.59;4129340;28;20074;-76
2022/11/13 01:01:13;;;;;;;7.95;6.20;;;;;;;10.42;69.76;95969.75;4142749;28;20089;-75
2022/11/13 01:03:16;;;;;;;9.88;6.50;;;;;;;10.43;70.17;95971.41;4144034;28;20053;-78
2022/11/13 01:05:17;;;;;;;10.20;7.88;;;;;;;10.35;70.24;95968.63;4142166;28;20049;-75
2022/11/13 01:07:19;;;;;;;9.43;7.10;;;;;;;10.27;70.51;95971.81;4144049;28;20165;-75
2022/11/13 01:09:21;;;;;;;10.80;7.57;;;;;;;10.23;70.17;95971.22;4143397;28;20129;-75
2022/11/13 01:11:25;;;;;;;10.68;7.32;;;;;;;10.23;70.59;95976.47;4139545;28;20177;-74
2022/11/13 01:13:27;;;;;;;10.05;7.75;;;;;;;10.23;70.96;95973.03;4142440;28;20058;-74
2022/11/13 01:15:29;;;;;;;10.00;7.57;;;;;;;10.26;70.49;95975.41;4143345;28;20161;-76
2022/11/13 01:17:30;;;;;;;9.55;7.82;;;;;;;10.28;70.56;95965.59;4142102;28;20536;-76
2022/11/13 01:19:32;;;;;;;12.95;7.82;;;;;;;10.31;70.46;95970.66;4143668;28;20046;-75
2022/11/13 01:21:34;;;;;;;10.02;7.63;;;;;;;10.36;70.38;95970.25;4143095;28;20076;-75
2022/11/13 01:23:36;;;;;;;11.70;8.73;;;;;;;10.40;70.13;95966.44;4142145;28;20085;-76
2022/11/13 01:25:38;;;;;;;12.50;7.45;;;;;;;10.43;70.17;95967.03;4144186;28;20380;-74
2022/11/13 01:27:39;;;;;;;10.32;8.00;;;;;;;10.46;70.01;95963.31;4143408;28;20045;-74
2022/11/13 01:29:41;;;;;;;10.68;8.07;;;;;;;10.48;70.11;95963.19;4140892;28;20074;-74
2022/11/13 01:31:43;;;;;;;12.70;8.43;;;;;;;10.38;70.36;95958.69;4139611;28;20061;-75
2022/11/13 01:33:46;;;;;;;9.55;7.60;;;;;;;10.37;70.00;95959.66;4146899;28;20133;-74
2022/11/13 01:35:47;;;;;;;11.98;8.35;;;;;;;10.25;70.33;95956.22;4145273;28;20121;-76
2022/11/13 01:37:49;;;;;;;11.27;7.50;;;;;;;10.21;70.78;95964.47;4145705;28;20125;-74
2022/11/13 01:39:51;;;;;;;10.40;8.15;;;;;;;10.23;70.55;95965.16;4146511;28;20054;-75
2022/11/13 01:41:52;;;;;;;10.98;8.20;;;;;;;10.28;70.60;95960.38;4145169;28;20068;-74
2022/11/13 01:43:55;;;;;;;10.65;7.93;;;;;;;10.38;70.32;95952.63;4145002;28;20050;-73
2022/11/13 01:45:56;;;;;;;12.65;8.30;;;;;;;10.43;70.34;95955.69;4146292;28;20046;-75
2022/11/13 01:47:58;;;;;;;10.25;8.00;;;;;;;10.49;70.40;95960.41;4145762;28;20534;-73
2022/11/13 01:50:01;;;;;;;11.93;8.63;;;;;;;10.51;70.00;95942.78;4129417;28;20081;-73
2022/11/13 01:52:06;;;;;;;11.73;7.95;;;;;;;10.46;69.81;95950.22;4146770;28;20428;-75
2022/11/13 01:54:12;;;;;;;9.38;7.57;;;;;;;10.44;69.95;95947.72;4144381;28;20132;-75
2022/11/13 01:56:15;;;;;;;12.23;8.68;;;;;;;10.49;70.08;95943.88;4144802;28;20065;-75
2022/11/13 01:58:17;;;;;;;11.30;8.00;;;;;;;10.54;69.78;95944.31;4145064;28;20140;-74
2022/11/13 02:00:18;;;;;;;9.57;7.65;;;;;;;10.60;69.79;95942.03;4128760;28;20069;-73
2022/11/13 02:02:20;;;;;;;11.10;8.23;;;;;;;10.55;69.94;95951.22;4144137;28;20108;-74
2022/11/13 02:04:22;;;;;;;11.00;8.00;;;;;;;10.52;69.73;95943.63;4146334;28;20131;-74
2022/11/13 02:06:26;;;;;;;9.07;7.70;;;;;;;10.53;69.48;95945.28;4144622;28;20503;-75
2022/11/13 02:08:28;;;;;;;9.65;8.23;;;;;;;10.41;69.62;95949.75;4128181;28;20081;-74
2022/11/13 02:10:30;;;;;;;10.52;8.57;;;;;;;10.36;70.27;95946.69;4140212;28;20053;-75
2022/11/13 02:12:35;;;;;;;10.30;8.52;;;;;;;10.38;69.82;95950.84;4146289;28;20416;-75
2022/11/13 02:14:39;;;;;;;10.52;7.97;;;;;;;10.39;69.94;95951.66;4144900;28;20656;-76
2022/11/13 02:16:42;;;;;;;12.68;7.68;;;;;;;10.40;70.19;95950.72;4144875;28;20077;-74
2022/11/13 02:18:44;;;;;;;12.75;8.45;;;;;;;10.40;69.92;95955.97;4128329;28;20051;-75
2022/11/13 02:21:04;;;;;;;11.80;8.05;;;;;;;10.38;70.30;95952.63;4146466;28;20154;-72
2022/11/13 02:23:23;;;;;;;12.23;8.15;;;;;;;10.42;70.07;95956.66;4145647;28;20454;-72
2022/11/13 02:25:28;;;;;;;11.85;8.50;;;;;;;10.39;69.94;95954.28;4144294;28;20049;-73
2022/11/13 02:27:34;;;;;;;10.80;8.52;;;;;;;10.42;70.15;95951.41;4144580;28;20548;-71
2022/11/13 02:29:35;;;;;;;10.55;8.35;;;;;;;10.41;69.65;95953.22;4142443;28;20073;-73
2022/11/13 02:31:46;;;;;;;11.43;8.23;;;;;;;10.43;69.91;95953.94;4137066;28;20050;-72
2022/11/13 02:33:48;;;;;;;12.45;8.88;;;;;;;10.49;69.76;95949.13;4142941;28;20116;-73
2022/11/13 02:35:49;;;;;;;11.18;8.40;;;;;;;10.52;69.86;95944.47;4145806;28;20080;-74
2022/11/13 02:37:51;;;;;;;9.68;7.38;;;;;;;10.53;69.90;95948.72;4144162;28;20515;-72
2022/11/13 02:39:53;;;;;;;10.65;8.18;;;;;;;10.55;69.76;95948.63;4145376;28;20138;-72
2022/11/13 02:41:55;;;;;;;9.85;7.93;;;;;;;10.57;69.81;95944.91;4144064;28;20152;-73
2022/11/13 02:43:56;;;;;;;10.27;7.63;;;;;;;10.58;69.48;95937.88;4145075;28;20165;-72
2022/11/13 02:45:58;;;;;;;9.35;7.80;;;;;;;10.56;69.30;95945.03;4144778;28;20125;-73
2022/11/13 02:48:00;;;;;;;10.13;8.27;;;;;;;10.55;69.65;95940.75;4144585;28;20060;-72
2022/11/13 02:50:03;;;;;;;11.93;8.02;;;;;;;10.54;69.71;95937.31;4145402;28;20144;-74
2022/11/13 02:52:05;;;;;;;10.18;8.15;;;;;;;10.51;69.77;95940.16;4143901;28;20081;-72
2022/11/13 02:54:06;;;;;;;9.68;7.47;;;;;;;10.57;69.23;95944.06;4127833;28;20086;-73
2022/11/13 02:56:12;;;;;;;9.98;8.32;;;;;;;10.56;69.50;95945.03;4141781;28;20080;-74
2022/11/13 02:58:13;;;;;;;12.90;8.15;;;;;;;10.61;69.54;95945.47;4145758;28;20077;-72
2022/11/13 03:00:16;;;;;;;12.95;8.25;;;;;;;10.60;69.45;95943.81;4143782;28;20089;-74
2022/11/13 03:02:17;;;;;;;12.05;8.95;;;;;;;10.60;69.28;95943.81;4144610;28;20638;-73
2022/11/13 03:04:19;;;;;;;11.60;8.32;;;;;;;10.64;69.48;95947.84;4143754;28;20062;-72
2022/11/13 03:06:21;;;;;;;11.68;8.57;;;;;;;10.63;69.13;95944.38;4145215;28;20074;-73
2022/11/13 03:08:24;;;;;;;11.95;9.10;;;;;;;10.64;69.44;95953.06;4144937;28;20072;-71
2022/11/13 03:10:26;;;;;;;12.32;9.65;;;;;;;10.61;69.53;95946.31;4135682;28;20057;-70
2022/11/13 03:12:28;;;;;;;11.43;8.63;;;;;;;10.60;69.52;95942.03;4141450;28;20053;-74
2022/11/13 03:14:29;;;;;;;12.68;9.30;;;;;;;10.64;69.48;95947.84;4145031;28;20125;-72
2022/11/13 03:16:31;;;;;;;13.32;9.55;;;;;;;10.64;68.98;95940.78;4143886;28;20676;-72
2022/11/13 03:18:33;;;;;;;12.18;9.95;;;;;;;10.62;69.55;95942.72;4143850;28;20050;-73
2022/11/13 03:20:35;;;;;;;13.35;9.18;;;;;;;10.58;69.40;95943.97;4145366;28;20081;-73
2022/11/13 03:22:37;;;;;;;12.48;9.32;;;;;;;10.60;69.73;95934.19;4130974;28;20085;-72
2022/11/13 03:24:39;;;;;;;13.05;9.80;;;;;;;10.60;69.51;95942.03;4144814;28;20050;-72
2022/11/13 03:26:40;;;;;;;12.57;9.50;;;;;;;10.59;69.59;95942.97;4141699;28;20080;-73
2022/11/13 03:28:42;;;;;;;15.88;10.85;;;;;;;10.59;69.54;95939.53;4145142;28;20142;-71
2022/11/13 03:30:46;;;;;;;14.07;10.43;;;;;;;10.56;69.43;95939.78;4144761;28;20088;-73
2022/11/13 03:32:52;;;;;;;13.88;10.90;;;;;;;10.46;69.91;95939.72;4144055;28;20077;-72
2022/11/13 03:34:54;;;;;;;11.25;8.85;;;;;;;10.40;70.16;95941.06;4145115;28;20119;-71
2022/11/13 03:36:55;;;;;;;14.13;10.65;;;;;;;10.42;70.19;95940.94;4144292;28;20050;-72
2022/11/13 03:38:57;;;;;;;12.93;10.13;;;;;;;10.46;70.20;95947.59;4138193;28;20121;-72
2022/11/13 03:40:59;;;;;;;13.05;10.13;;;;;;;10.51;69.82;95937.53;4129908;28;20097;-73
2022/11/13 03:43:01;;;;;;;14.57;10.23;;;;;;;10.56;69.79;95940.63;4136681;28;20125;-72
2022/11/13 03:45:03;;;;;;;13.73;9.68;;;;;;;10.61;69.87;95942.88;4143690;28;20133;-73
2022/11/13 03:47:04;;;;;;;14.77;10.18;;;;;;;10.63;69.63;95947.00;4143275;28;20099;-73
2022/11/13 03:49:06;;;;;;;12.80;9.68;;;;;;;10.67;69.34;95952.84;4142783;28;20093;-73
2022/11/13 03:51:08;;;;;;;14.43;10.05;;;;;;;10.68;68.95;95949.25;4144189;28;20049;-71
2022/11/13 03:53:10;;;;;;;13.82;10.27;;;;;;;10.64;69.46;95943.41;4143380;28;20081;-72
2022/11/13 03:55:12;;;;;;;13.07;9.52;;;;;;;10.63;69.72;95952.25;4143870;28;20377;-73
2022/11/13 03:57:14;;;;;;;13.10;10.13;;;;;;;10.63;69.36;95951.44;4143958;28;20145;-73
2022/11/13 03:59:15;;;;;;;14.48;10.77;;;;;;;10.57;69.67;95941.47;4142685;28;20129;-71
2022/11/13 04:01:17;;;;;;;12.65;9.50;;;;;;;10.40;69.87;95955.97;4142989;28;20054;-71
2022/11/13 04:03:19;;;;;;;14.98;11.02;;;;;;;10.39;70.12;95949.03;4144581;28;20551;-72
2022/11/13 04:05:21;;;;;;;12.85;9.80;;;;;;;10.34;70.64;95951.22;4144566;28;20077;-71
2022/11/13 04:07:23;;;;;;;13.73;10.43;;;;;;;10.43;70.40;95950.44;4144544;28;20214;-72
2022/11/13 04:09:25;;;;;;;14.25;11.05;;;;;;;10.52;70.19;95946.22;4143837;28;20464;-73
2022/11/13 04:11:26;;;;;;;16.15;10.68;;;;;;;10.48;69.72;95958.78;4134075;28;20671;-73
2022/11/13 04:13:28;;;;;;;13.45;10.65;;;;;;;10.40;69.88;95953.34;4144694;28;20108;-74
2022/11/13 04:15:30;;;;;;;14.10;11.40;;;;;;;10.43;70.75;95953.06;4142589;28;20519;-74
2022/11/13 04:17:32;;;;;;;13.23;10.63;;;;;;;10.47;70.38;95946.63;4130986;28;20058;-74
2022/11/13 04:19:33;;;;;;;13.57;11.02;;;;;;;10.52;69.89;95941.84;4144526;28;20050;-73
2022/11/13 04:21:35;;;;;;;17.35;11.70;;;;;;;10.55;70.21;95943.38;4144671;28;20128;-75
2022/11/13 04:23:37;;;;;;;14.38;11.25;;;;;;;10.54;70.01;95944.31;4143807;28;20054;-75
2022/11/13 04:25:38;;;;;;;14.45;10.35;;;;;;;10.56;70.27;95938.00;4144456;28;20479;-74
2022/11/13 04:27:40;;;;;;;14.90;11.32;;;;;;;10.58;70.16;95943.09;4144157;28;20038;-74
2022/11/13 04:29:42;;;;;;;12.82;10.68;;;;;;;10.59;70.22;95944.78;4142797;28;20561;-74
2022/11/13 04:31:43;;;;;;;13.57;10.75;;;;;;;10.52;69.89;95941.00;4143313;28;20081;-75
2022/11/13 04:33:45;;;;;;;15.60;11.65;;;;;;;10.50;70.53;95943.75;4144355;28;20137;-75
2022/11/13 04:35:47;;;;;;;14.23;10.68;;;;;;;10.50;70.13;95951.63;4142623;28;20073;-74
2022/11/13 04:37:49;;;;;;;14.63;10.85;;;;;;;10.54;70.32;95950.41;4126715;28;20137;-74
2022/11/13 04:39:50;;;;;;;14.10;10.75;;;;;;;10.58;70.27;95959.69;4140316;28;20137;-74
2022/11/13 04:44:13;;;;;;;15.73;11.18;;;;;;;10.48;70.28;95943.06;4141669;28;20077;-75
2022/11/13 04:46:14;;;;;;;14.30;10.80;;;;;;;10.40;71.13;95948.09;4141400;28;20131;-74
2022/11/13 04:48:16;;;;;;;14.77;11.05;;;;;;;10.36;70.92;95946.69;4143906;28;20649;-75
2022/11/13 04:50:18;;;;;;;17.85;12.13;;;;;;;10.39;70.81;95944.66;4144132;28;20069;-72
2022/11/13 04:52:20;;;;;;;15.15;11.73;;;;;;;10.41;70.40;95947.13;4144251;28;20073;-74
2022/11/13 04:54:21;;;;;;;18.73;12.73;;;;;;;10.45;71.11;95943.28;4142257;28;20542;-75
2022/11/13 04:56:29;;;;;;;14.88;11.75;;;;;;;10.53;70.82;95942.66;4143078;28;20069;-75
2022/11/13 04:58:31;;;;;;;16.83;12.15;;;;;;;10.60;70.43;95947.28;4121953;28;20129;-74
2022/11/13 05:00:32;;;;;;;18.42;13.10;;;;;;;10.59;70.31;95950.84;4136323;28;20288;-74
2022/11/13 05:02:34;;;;;;;19.45;14.25;;;;;;;10.54;70.13;95955.66;4143406;28;20137;-75
2022/11/13 05:04:36;;;;;;;20.10;14.95;;;;;;;10.38;70.73;95944.78;4142175;28;20134;-74
2022/11/13 05:06:37;;;;;;;20.48;15.23;;;;;;;10.38;71.38;95953.44;4128727;28;20444;-74
2022/11/13 05:08:39;;;;;;;22.42;15.13;;;;;;;10.38;70.54;95950.00;4147012;28;20504;-74
2022/11/13 05:10:42;;;;;;;22.65;16.20;;;;;;;10.36;70.79;95947.50;4145817;28;20097;-74
2022/11/13 05:12:44;;;;;;;20.13;16.50;;;;;;;10.40;71.07;95945.47;4144828;28;20046;-74
2022/11/13 05:14:45;;;;;;;20.27;15.35;;;;;;;10.48;70.41;95947.47;4145780;28;20133;-75
2022/11/13 05:16:48;;;;;;;23.42;17.02;;;;;;;10.34;70.58;95948.59;4145840;28;20142;-75
2022/11/13 05:18:50;;;;;;;26.90;18.85;;;;;;;10.39;71.13;95949.91;4147249;28;20165;-73
2022/11/13 05:20:52;;;;;;;25.30;17.33;;;;;;;10.26;71.13;95954.47;4147693;28;20084;-76
2022/11/13 05:22:54;;;;;;;23.13;17.65;;;;;;;10.31;71.32;95956.72;4147139;28;20557;-76
2022/11/13 05:24:55;;;;;;;22.00;17.63;;;;;;;10.33;71.28;95954.81;4145197;28;20049;-75
2022/11/13 05:26:57;;;;;;;24.02;18.50;;;;;;;10.31;71.11;95954.94;4116314;28;20182;-77
2022/11/13 05:28:59;;;;;;;22.88;17.23;;;;;;;10.41;71.47;95952.38;4135822;28;20381;-76
2022/11/13 05:31:08;;;;;;;23.55;17.15;;;;;;;10.45;70.82;95954.63;4146734;28;20807;-75
2022/11/13 05:33:16;;;;;;;22.50;16.45;;;;;;;10.42;70.77;95964.53;4147053;28;20083;-77
2022/11/13 05:35:17;;;;;;;25.92;17.52;;;;;;;10.43;70.62;95961.78;4134817;28;20042;-75
2022/11/13 05:37:19;;;;;;;22.80;17.02;;;;;;;10.46;71.03;95955.44;4146874;28;20129;-75
2022/11/13 05:39:21;;;;;;;25.20;17.67;;;;;;;10.48;70.55;95961.41;4145177;28;20085;-75
2022/11/13 05:41:23;;;;;;;23.40;18.08;;;;;;;10.50;70.52;95969.97;4146628;28;20119;-74
2022/11/13 05:43:24;;;;;;;23.17;17.75;;;;;;;10.54;70.53;95966.13;4141872;28;20156;-73
2022/11/13 05:45:26;;;;;;;22.15;17.80;;;;;;;10.45;70.73;95980.81;4136778;28;20666;-75
2022/11/13 05:47:28;;;;;;;25.20;17.77;;;;;;;10.48;70.99;95979.72;4145817;28;20156;-74
2022/11/13 05:49:30;;;;;;;23.48;16.58;;;;;;;10.47;70.78;95972.00;4135859;28;20129;-75
2022/11/13 05:51:32;;;;;;;24.33;17.88;;;;;;;10.42;71.02;95978.44;4128765;28;20900;-73
2022/11/13 05:53:35;;;;;;;25.08;19.33;;;;;;;10.45;70.91;95970.34;4146556;28;20124;-74
2022/11/13 05:55:37;;;;;;;22.70;17.73;;;;;;;10.51;70.38;95976.03;4146025;28;20068;-77
2022/11/13 05:57:38;;;;;;;25.08;17.42;;;;;;;10.53;70.26;95981.97;4146688;28;20132;-73
2022/11/13 05:59:40;;;;;;;22.38;16.63;;;;;;;10.54;70.03;95984.47;4146647;28;20088;-77
2022/11/13 06:01:42;;;;;;;24.35;17.80;;;;;;;10.57;70.60;95981.59;4143726;28;20077;-75
2022/11/13 06:03:45;;;;;;;24.00;18.05;;;;;;;10.55;70.07;95983.50;4146615;28;20050;-76
2022/11/13 06:05:46;;;;;;;24.70;17.63;;;;;;;10.53;69.74;95979.34;4146769;28;20058;-75
2022/11/13 06:07:48;;;;;;;23.05;18.20;;;;;;;10.54;70.27;95981.84;4145847;28;20167;-75
2022/11/13 06:09:50;;;;;;;24.80;18.05;;;;;;;10.56;69.79;95987.78;4144278;28;20088;-75
2022/11/13 06:11:52;;;;;;;24.45;17.25;;;;;;;10.60;69.79;95983.13;4137460;28;20488;-74
2022/11/13 06:13:54;;;;;;;24.80;18.27;;;;;;;10.68;69.41;95988.56;4146180;28;20578;-77
2022/11/13 06:16:04;;;;;;;25.67;18.45;;;;;;;10.70;69.14;95991.06;4128324;28;20078;-76
2022/11/13 06:18:05;;;;;;;24.60;18.10;;;;;;;10.65;69.26;95989.66;4146554;28;20181;-75
2022/11/13 06:20:08;;;;;;;24.58;17.40;;;;;;;10.64;69.27;95989.75;4145553;28;20054;-77
2022/11/13 06:22:09;;;;;;;20.33;15.18;;;;;;;10.62;68.88;95986.44;4145957;28;20054;-76
2022/11/13 06:24:11;;;;;;;25.75;16.55;;;;;;;10.68;69.23;95991.16;4145898;28;20110;-75
2022/11/13 06:26:18;;;;;;;23.98;17.25;;;;;;;10.62;68.88;95986.44;4145957;28;20133;-76
2022/11/13 06:28:20;;;;;;;23.23;17.45;;;;;;;10.56;69.19;95982.56;4145898;28;20084;-74
2022/11/13 06:30:22;;;;;;;21.42;16.88;;;;;;;10.59;68.95;95992.78;4145251;28;20629;-75
2022/11/13 06:32:23;;;;;;;26.73;17.13;;;;;;;10.61;69.00;95997.91;4145505;28;20132;-76
2022/11/13 06:34:25;;;;;;;24.77;17.45;;;;;;;10.68;68.93;95995.59;4144431;28;20132;-76
2022/11/13 06:36:30;;;;;;;25.42;17.67;;;;;;;10.71;68.58;95995.31;4146275;28;20054;-75
2022/11/13 06:38:35;;;;;;;22.13;15.93;;;;;;;10.75;68.46;95991.50;4145069;28;20421;-75
2022/11/13 06:40:38;;;;;;;24.83;17.40;;;;;;;10.73;68.38;95994.22;4127967;28;20046;-76
2022/11/13 06:42:40;;;;;;;23.42;18.52;;;;;;;10.79;68.29;95998.97;4144288;28;20196;-74
2022/11/13 06:44:41;;;;;;;26.65;18.95;;;;;;;10.91;68.32;95997.13;4145986;28;20531;-77
2022/11/13 06:46:43;;;;;;;23.55;17.20;;;;;;;10.94;67.90;95991.59;4142769;28;20067;-73
2022/11/13 06:48:45;;;;;;;25.15;17.27;;;;;;;10.99;67.66;95989.44;4144453;28;20196;-75
2022/11/13 06:50:47;;;;;;;23.98;15.80;;;;;;;11.07;67.49;95996.63;4144863;28;20060;-76
2022/11/13 06:52:49;;;;;;;24.30;17.00;;;;;;;11.12;67.28;95985.75;4144276;28;20168;-75
2022/11/13 06:54:50;;;;;;;24.80;16.90;;;;;;;11.15;67.15;95993.38;4143571;28;20061;-73
2022/11/13 06:56:52;;;;;;;22.20;16.13;;;;;;;11.07;66.73;95992.22;4144391;28;20125;-75
2022/11/13 06:58:55;;;;;;;22.23;15.52;;;;;;;11.07;66.90;95988.78;4145723;28;20041;-76
2022/11/13 07:00:56;;;;;;;22.80;16.70;;;;;;;11.07;66.93;95981.72;4144084;28;20061;-73
2022/11/13 07:02:58;;;;;;;24.70;16.15;;;;;;;11.08;67.09;95985.22;4143330;28;20053;-78
2022/11/13 07:05:00;;;;;;;24.50;17.05;;;;;;;11.10;66.76;95985.06;4145565;28;20085;-77
2022/11/13 07:07:03;;;;;;;21.85;16.02;;;;;;;11.12;66.79;95983.13;4145323;28;20088;-76
2022/11/13 07:09:05;;;;;;;24.27;18.40;;;;;;;11.13;66.43;95990.06;4145905;28;20049;-75
2022/11/13 07:11:12;;;;;;;21.52;15.40;;;;;;;11.14;66.87;95983.84;4154291;28;20657;-79
2022/11/13 07:13:14;;;;;;;23.55;14.95;;;;;;;11.14;66.88;95984.69;4128082;28;20058;-78
2022/11/13 07:15:16;;;;;;;21.92;15.95;;;;;;;11.01;66.23;95994.53;4139632;28;20064;-76
2022/11/13 07:17:18;;;;;;;25.58;17.00;;;;;;;11.03;66.43;95995.25;4144530;28;20509;-75
2022/11/13 07:19:19;;;;;;;25.05;16.50;;;;;;;11.02;66.77;95997.03;4145474;28;20050;-75
2022/11/13 07:21:22;;;;;;;27.55;17.83;;;;;;;11.07;66.71;95994.84;4145866;28;20049;-76
2022/11/13 07:23:24;;;;;;;22.15;15.18;;;;;;;11.13;66.50;95996.13;4145371;28;20180;-75
2022/11/13 07:25:26;;;;;;;21.58;15.75;;;;;;;11.11;65.75;95994.59;4143086;28;20049;-77
2022/11/13 07:27:28;;;;;;;25.25;16.40;;;;;;;11.15;65.91;95993.38;4144603;28;20137;-77
2022/11/13 07:29:30;;;;;;;23.40;16.63;;;;;;;11.17;66.35;95994.09;4143738;28;20053;-74
2022/11/13 07:31:31;;;;;;;21.88;16.27;;;;;;;11.18;65.84;95988.69;4125747;28;20104;-73
2022/11/13 07:33:43;;;;;;;22.60;16.05;;;;;;;11.25;65.74;95989.84;4144326;28;20132;-77
2022/11/13 07:35:45;;;;;;;22.08;16.75;;;;;;;11.30;65.71;95986.81;4145111;28;20127;-78
2022/11/13 07:37:46;;;;;;;22.88;15.65;;;;;;;11.27;65.76;95987.06;4143423;28;20081;-77
2022/11/13 07:39:48;;;;;;;22.10;16.40;;;;;;;11.24;65.65;95985.53;4143539;28;20084;-79
2022/11/13 07:41:50;;;;;;;22.98;16.65;;;;;;;11.29;65.63;95993.00;4143155;28;20054;-78
2022/11/13 07:43:51;;;;;;;25.38;17.65;;;;;;;11.35;65.69;95994.28;4136792;28;20050;-76
2022/11/13 07:45:54;;;;;;;23.40;17.65;;;;;;;11.37;65.17;95997.63;4143302;28;20483;-77
2022/11/13 07:48:02;;;;;;;25.30;16.25;;;;;;;11.44;65.07;96003.97;4144002;28;20054;-76
2022/11/13 07:50:04;;;;;;;26.20;17.20;;;;;;;11.44;65.17;95993.47;4144716;28;20068;-75
2022/11/13 07:52:11;;;;;;;21.85;16.00;;;;;;;11.43;65.08;96000.53;4143513;28;20065;-76
2022/11/13 07:54:13;;;;;;;20.05;15.52;;;;;;;11.40;64.95;96000.81;4144279;28;20077;-76
2022/11/13 07:56:14;;;;;;;21.05;14.52;;;;;;;11.37;65.27;96001.06;4144251;28;20082;-76
2022/11/13 07:58:23;;;;;;;22.77;15.65;;;;;;;11.37;65.24;95997.63;4133019;28;20511;-76
2022/11/13 08:00:26;;;;;;;23.55;16.95;;;;;;;11.41;65.18;95999.84;4127032;28;20451;-76
2022/11/13 08:02:27;;;;;;;20.13;16.30;;;;;;;11.43;64.71;96000.53;4142751;28;20049;-74
2022/11/13 08:04:29;;;;;;;22.35;17.02;;;;;;;11.52;64.94;96005.97;4143223;28;20142;-76
2022/11/13 08:06:31;;;;;;;22.20;16.33;;;;;;;11.48;64.69;95990.47;4144544;28;20049;-77
2022/11/13 08:08:33;;;;;;;24.63;18.30;;;;;;;11.52;64.88;95992.84;4144202;28;20137;-75
2022/11/13 08:10:35;;;;;;;23.48;17.35;;;;;;;11.57;64.77;95995.88;4133385;28;20089;-73
2022/11/13 08:12:37;;;;;;;26.73;17.00;;;;;;;11.69;64.57;96000.06;4143217;28;20591;-78
2022/11/13 08:14:38;;;;;;;27.38;17.45;;;;;;;11.74;64.22;95997.88;4144567;28;20106;-76
2022/11/13 08:16:40;;;;;;;23.75;16.85;;;;;;;11.76;63.92;95993.31;4143526;28;20117;-75
2022/11/13 08:18:42;;;;;;;22.52;16.52;;;;;;;11.81;63.57;95998.19;4144236;28;20053;-77
2022/11/13 08:20:44;;;;;;;23.67;16.10;;;;;;;11.86;63.73;95996.78;4144262;28;20465;-75
2022/11/13 08:22:45;;;;;;;23.77;17.45;;;;;;;11.94;63.26;95990.91;4144645;28;20042;-76
2022/11/13 08:24:47;;;;;;;25.25;17.98;;;;;;;12.03;63.44;95991.88;4144145;28;20046;-74
2022/11/13 08:26:49;;;;;;;24.05;17.45;;;;;;;11.97;62.73;96001.13;4144153;28;20058;-75
2022/11/13 08:28:51;;;;;;;22.13;16.63;;;;;;;11.85;63.10;95989.91;4143422;28;20042;-75
2022/11/13 08:30:52;;;;;;;23.23;16.45;;;;;;;11.73;63.08;95987.50;4144042;28;20088;-79
2022/11/13 08:32:54;;;;;;;24.10;16.00;;;;;;;11.61;63.35;95999.91;4143766;28;20049;-76
2022/11/13 08:34:56;;;;;;;22.63;16.23;;;;;;;11.60;64.01;95990.38;4144004;28;20137;-77
2022/11/13 08:36:57;;;;;;;22.15;15.95;;;;;;;11.67;63.70;95999.38;4142623;28;20450;-74
2022/11/13 08:38:59;;;;;;;23.80;15.98;;;;;;;11.55;63.65;95996.03;4143755;28;20100;-73
2022/11/13 08:41:03;;;;;;;23.25;17.00;;;;;;;11.57;63.90;96003.75;4142578;28;20830;-74
2022/11/13 08:43:09;;;;;;;22.08;15.75;;;;;;;11.67;63.83;96007.25;4144604;28;20147;-76
2022/11/13 08:45:11;;;;;;;24.20;15.73;;;;;;;11.67;63.62;96004.63;4143963;28;20049;-76
2022/11/13 08:47:13;;;;;;;22.92;16.48;;;;;;;11.64;63.57;96010.16;4144166;28;20081;-73
2022/11/13 08:49:14;;;;;;;25.83;17.77;;;;;;;11.57;63.61;96012.47;4144190;28;20050;-74
2022/11/13 08:51:17;;;;;;;25.60;16.95;;;;;;;11.68;63.40;96009.75;4144352;28;20049;-75
2022/11/13 08:53:19;;;;;;;23.13;16.88;;;;;;;11.76;62.97;96013.50;4143602;28;20511;-74
2022/11/13 08:55:21;;;;;;;23.20;16.73;;;;;;;11.85;63.26;96023.19;4144061;28;20514;-76
2022/11/13 08:57:22;;;;;;;24.17;17.75;;;;;;;11.97;63.19;96011.63;4143862;28;20176;-74
2022/11/13 08:59:26;;;;;;;24.17;17.70;;;;;;;12.10;62.88;96016.63;4143986;28;20050;-75
2022/11/13 09:01:27;;;;;;;28.20;17.25;;;;;;;12.20;62.00;96012.22;4142510;28;20054;-73
2022/11/13 09:03:29;;;;;;;21.10;16.05;;;;;;;12.16;61.96;96018.72;4143901;28;20061;-76
2022/11/13 09:05:31;;;;;;;21.00;16.55;;;;;;;12.02;61.85;96019.97;4144235;28;20053;-74
2022/11/13 09:07:33;;;;;;;20.55;16.80;;;;;;;11.88;62.43;96015.06;4143772;28;20090;-73
2022/11/13 09:09:35;;;;;;;23.30;18.70;;;;;;;11.78;63.09;96022.88;4140650;28;20699;-75
2022/11/13 09:11:36;;;;;;;23.55;16.95;;;;;;;11.79;63.11;96018.50;4143982;28;20077;-73
2022/11/13 09:13:38;;;;;;;24.00;17.77;;;;;;;11.90;62.94;96018.41;4144521;28;20053;-75
2022/11/13 09:15:46;;;;;;;23.05;17.63;;;;;;;11.92;62.58;96020.91;4143513;28;20131;-75
2022/11/13 09:17:47;;;;;;;26.95;19.55;;;;;;;11.98;62.54;96013.31;4143525;28;20373;-74
2022/11/13 09:19:49;;;;;;;25.95;17.90;;;;;;;12.11;62.63;96017.47;4142561;28;20050;-76
2022/11/13 09:21:51;;;;;;;26.17;19.45;;;;;;;12.01;62.22;96020.91;4142520;28;20078;-75
2022/11/13 09:23:53;;;;;;;25.15;18.23;;;;;;;12.04;62.57;96017.16;4143749;28;20057;-76
2022/11/13 09:25:55;;;;;;;24.10;16.67;;;;;;;12.07;62.82;96011.66;4143810;28;20050;-78
2022/11/13 09:27:59;;;;;;;28.90;20.33;;;;;;;12.13;62.65;96008.50;4141897;28;20193;-77
2022/11/13 09:30:00;;;;;;;23.17;17.77;;;;;;;12.13;62.39;96008.50;4139464;28;20133;-76